Aviation Digital Data Service (ADDS)

Output produced by METARs form (1051 UTC 19 January 2019)
found at http://www.aviationweather.gov/metar/data/
 
VTBD 191030Z 32010KT 300V360 9000 NSC 30/21 Q1011 NOSIG
TAF VTBD 190500Z 1906/2012 09008KT 9999 FEW040 
     BECMG 1912/1914 32005KT 
     BECMG 1922/1924 02005KT 5000 BR 
     BECMG 2002/2004 10005KT 9999 NSW FEW025
       
VTUO 191000Z 06005KT 030V100 8000 NSC 31/19 Q1012 NOSIG
TAF VTUO 190500Z 1906/2006 02006KT 9000 FEW040 
     BECMG 1921/1923 7000 
     BECMG 2002/2004 9000
       
VTCC 191030Z 06004KT 9999 SCT035 29/16 Q1013 NOSIG
TAF VTCC 190500Z 1906/2012 30005KT 9999 FEW035
       
VTCT 191000Z 15004KT 9999 FEW025 28/18 Q1012 NOSIG
TAF VTCT 190500Z 1906/2012 32005KT 9999 FEW030
       
VTSE 191000Z 05007KT 360V080 9000 FEW020 29/23 Q1009 NOSIG
TAF VTSE 190500Z 1906/2006 03008KT 8000 FEW020 SCT100 
     TEMPO 1906/1912 5000 -RA BR SCT015 BKN100 
     BECMG 1920/1922 5000 BR 
     BECMG 2002/2004 8000 NSW
       
VTSS 191030Z 06011KT 9999 FEW020 29/21 Q1009 NOSIG
TAF VTSS 190500Z 1906/2006 07015KT 9999 FEW020 
     BECMG 1914/1916 07003KT 
     BECMG 2003/2005 07013KT
       
VTPH 191000Z 01005KT 330V070 5000 HZ NSC 29/21 Q1010 NOSIG
TAF VTPH 190500Z 1906/2006 02010KT 8000 FEW030 
     BECMG 1916/1918 VRB03KT 5000 BR 
     BECMG 2000/2002 35005KT 7000 NSW
       
VTUK 191000Z VRB02KT 9999 FEW035 BKN100 30/17 Q1011 NOSIG
TAF VTUK 190500Z 1906/2006 05005KT 9000 SCT035 SCT100 
     BECMG 1922/1924 5000 BR 
     BECMG 2001/2003 8000 NSW FEW035
       
VTSG 191000Z 09007KT 040V120 9999 FEW020 32/22 Q1009 NOSIG
TAF VTSG 190500Z 1906/2006 08008KT 9999 SCT020 
     PROB40 
     TEMPO 1908/1912 VRB10G20KT 5000 TSRA FEW018TCU SCT020 BKN100 
     BECMG 1912/1914 02004KT 8000 
     BECMG 2001/2003 08008KT 9999
       
VTCL 191000Z 30004KT 250V350 9999 FEW025 31/16 Q1011 NOSIG
TAF VTCL 190500Z 1906/2006 30005KT 9999 FEW030
       
VTUL 191000Z 00000KT 9999 SCT030 30/15 Q1012 NOSIG
TAF VTUL 190500Z 1906/2006 08005KT 9000 FEW035 
     BECMG 1919/1921 5000 BR 
     BECMG 1922/1924 0800 FG 
     BECMG 2001/2003 8000 NSW
       
VTCH 191000Z 13004KT 9999 FEW025 27/18 Q1011 NOSIG
TAF VTCH 190500Z 1906/2006 32005KT 9999 FEW030
       
VTPM 191000Z 33004KT 300V050 9999 FEW025 32/12 Q1011 NOSIG
TAF VTPM 190500Z 1906/2006 30005KT 9999 FEW030
       
VTUW 191000Z 13007KT 100V160 9999 FEW045 BKN100 30/16 Q1012 NOSIG
TAF VTUW 190500Z 1906/2006 10005KT 9999 FEW035 
     BECMG 1922/1924 5000 BR 
     BECMG 2001/2003 9000 NSW
       
VTUQ 191000Z 35004KT 280V060 9000 FEW030 30/18 Q1012 NOSIG
TAF VTUQ 190500Z 1906/2006 01005KT 9999 FEW030 
     BECMG 1921/1923 8000 
     BECMG 2001/2003 9000
       
VTSF 191000Z 08008KT 050V120 9999 SCT018 29/23 Q1010 NOSIG
TAF VTSF 190500Z 1906/2006 11010KT 9999 SCT020 
     BECMG 1914/1916 26003KT 
     BECMG 2003/2005 11010KT
       
VTCN 191000Z VRB02KT 9999 FEW025 30/12 Q1011 NOSIG
TAF VTCN 190500Z 1906/2006 02005KT 9999 FEW030
       
VTSC 191000Z 09008KT 050V130 9999 FEW022 28/24 Q1009 NOSIG
TAF VTSC 190500Z 1906/2006 10010KT 9999 FEW020
       
VTSK 190900Z 05010KT 9999 FEW025 SCT300 30/23 Q1009
TAF VTSK 190500Z 1906/2006 09010KT 9999 FEW020 
     BECMG 1914/1916 16003KT 
     BECMG 2003/2005 09010KT
       
VTPB 191000Z 18003KT 9999 FEW035 BKN100 30/16 Q1011 NOSIG
TAF VTPB 190500Z 1906/2006 34005KT 9999 FEW030
       
VTPP 191000Z 33005KT CAVOK 30/16 Q1011 NOSIG
TAF VTPP 190500Z 1906/2006 02005KT 9999 FEW030
       
VTCP 191000Z VRB02KT 9999 FEW025 32/18 Q1011 NOSIG
TAF VTCP 190500Z 1906/2006 32005KT 9999 FEW030
       
VTSP 191030Z 30009KT 260V340 9999 SCT020 29/22 Q1010 NOSIG
TAF VTSP 190500Z 1906/2012 08010KT 9999 FEW020 
     BECMG 1911/1912 00000KT 8000 
     BECMG 1917/1919 08010KT 9999 
     PROB40 
     TEMPO 2008/2012 VRB10G20KT 5000 TSRA FEW018TCU SCT020 BKN100
       
VTSR 191000Z 09009KT 030V120 9999 BKN025 29/23 Q1009 NOSIG
TAF VTSR 190500Z 1906/2006 08008KT 9999 BKN020 
     TEMPO 1908/1912 VRB10G20KT 5000 TSRA FEW018TCU SCT020 BKN100 
     BECMG 1914/1916 VRB02KT 8000 FEW020 
     BECMG 2002/2004 08008KT 9999
       
VTUV 191000Z 06003KT 010V090 9999 FEW040 SCT100 30/15 Q1011 NOSIG
TAF VTUV 190500Z 1906/2006 04006KT 9999 FEW040 
     BECMG 1913/1915 8000 
     BECMG 2001/2003 9000
       
VTUI 191000Z 15003KT 100V170 9999 FEW040 BKN100 30/16 Q1011 NOSIG
TAF VTUI 190500Z 1906/2006 12005KT 9999 FEW035 
     BECMG 1922/1924 5000 BR 
     BECMG 2001/2003 9000 NSW
       
VTSM 191030Z VRB02KT 9000 -RA FEW020 SCT100 23/22 Q1011 NOSIG
TAF VTSM 190500Z 1906/2006 12008KT 9000 FEW020 BKN100 
     TEMPO 1906/1912 5000 RA SCT015 BKN100 
     TEMPO 1912/1916 5000 RA SCT015 BKN100
       
VTSH 191000Z 06010KT 9999 FEW020 30/24 Q1008 NOSIG
TAF VTSH 190500Z 1906/2006 08013KT 9999 FEW020 
     BECMG 1914/1916 08003KT 
     BECMG 2003/2005 08013KT
       
VTPO 191000Z VRB01KT 9999 FEW025 30/19 Q1010 NOSIG
TAF VTPO 190500Z 1906/2006 04005KT 9999 FEW030
       
VTSB 191000Z 06014KT 9999 FEW018TCU SCT100 28/24 Q1010
TAF VTSB 190500Z 1906/2006 06010KT 9999 FEW020 
     TEMPO 1906/1912 5000 RA SCT015 BKN100 
     BECMG 1913/1915 36003KT 
     BECMG 1920/1922 5000 BR 
     BECMG 2003/2005 06010KT 9999 NSW
       
TAF VTPT 190500Z 1906/2006 30005KT 9999 FEW030
       
VTST 191000Z 06015KT 9999 FEW020 30/21 Q1007 NOSIG
TAF VTST 190500Z 1906/2006 08015KT 9999 FEW020 
     BECMG 1914/1916 04007KT 8000 
     BECMG 2002/2004 08013KT 9999
       
VTBU 191030Z 22009KT 5000 HZ FEW020 29/19 Q1010 NOSIG
TAF VTBU 190500Z 1906/2006 17008KT 5000 HZ FEW020 
     BECMG 1911/1913 36004KT 3000 BR
       
VTUU 191030Z 02005KT 9999 FEW030 31/17 Q1011 NOSIG
TAF VTUU 190500Z 1906/2006 02004KT 9999 FEW035 
     BECMG 1913/1915 8000 NSC 
     BECMG 2001/2003 9000
       
VTUD 191000Z 35004KT 300V060 CAVOK 31/16 Q1012 NOSIG
TAF VTUD 190500Z 1906/2006 09007KT 9999 FEW035 
     BECMG 1922/1924 5000 BR 
     BECMG 2001/2003 8000 NSW